Time;durP1;ratioP1;P1;durP2;ratioP2;P2;SDS_P1;SDS_P2;PMS_P1;PMS_P2;Temp;Humidity;BMP_temperature;BMP_pressure;BME280_temperature;BME280_humidity;BME280_pressure;Samples;Min_cycle;Max_cycle;Signal;HPM_P1;HPM_P2
2023/03/05 00:01:34;;;;;;;;;19.00;18.00;28.20;34.10;;;;;;109635;1255;45447;-69
2023/03/05 00:04:02;;;;;;;;;19.00;18.00;28.30;34.00;;;;;;109624;1257;55176;-70
2023/03/05 00:06:29;;;;;;;;;19.75;16.75;28.30;33.90;;;;;;109847;1255;54033;-71
2023/03/05 00:08:57;;;;;;;;;17.00;16.00;28.40;33.80;;;;;;109778;1255;49413;-69
2023/03/05 00:11:26;;;;;;;;;18.00;16.00;28.40;33.90;;;;;;109801;1260;49440;-71
2023/03/05 00:13:53;;;;;;;;;16.00;15.00;28.50;33.80;;;;;;109786;1255;45960;-71
2023/03/05 00:16:21;;;;;;;;;18.00;17.00;28.50;33.70;;;;;;109877;1255;55992;-69
2023/03/05 00:18:48;;;;;;;;;24.00;19.00;28.60;33.50;;;;;;109808;1257;53726;-65
2023/03/05 00:21:29;;;;;;;;;23.00;19.00;28.60;33.40;;;;;;109662;1261;49105;-68
2023/03/05 00:23:57;;;;;;;;;21.67;17.33;28.60;33.70;;;;;;109867;1255;49459;-68
2023/03/05 00:26:25;;;;;;;;;20.00;19.00;28.60;33.20;;;;;;109759;1255;46164;-67
2023/03/05 00:28:54;;;;;;;;;18.00;17.00;28.60;33.10;;;;;;109815;1255;55879;-68
2023/03/05 00:31:25;;;;;;;;;19.00;15.00;28.60;33.00;;;;;;109721;1257;54606;-67
2023/03/05 00:33:54;;;;;;;;;21.00;18.00;28.60;33.00;;;;;;109610;1260;49125;-67
2023/03/05 00:36:20;;;;;;;;;25.50;21.50;28.60;32.90;;;;;;109622;1255;51282;-67
2023/03/05 00:38:46;;;;;;;;;;;28.60;32.80;;;;;;109630;1255;46121;-67
2023/03/05 00:41:13;;;;;;;;;27.00;20.50;28.60;32.70;;;;;;109694;1255;56042;-67
2023/03/05 00:43:39;;;;;;;;;25.00;18.00;28.50;32.90;;;;;;109657;1255;54535;-71
2023/03/05 00:46:06;;;;;;;;;22.00;20.00;28.50;32.60;;;;;;109645;1255;50614;-68
2023/03/05 00:48:32;;;;;;;;;19.00;17.00;28.50;32.60;;;;;;109689;1261;50086;-68
2023/03/05 00:50:58;;;;;;;;;21.00;19.00;28.40;32.50;;;;;;109703;1255;45508;-67
2023/03/05 00:53:25;;;;;;;;;21.50;18.50;28.40;32.50;;;;;;109725;1255;56277;-71
2023/03/05 00:55:51;;;;;;;;;20.00;19.00;28.30;32.60;;;;;;109639;1256;54464;-66
2023/03/05 00:58:17;;;;;;;;;24.00;21.00;28.30;32.40;;;;;;109671;1257;50107;-66
2023/03/05 01:00:44;;;;;;;;;21.00;20.50;28.20;32.30;;;;;;109680;1254;49856;-67
2023/03/05 01:03:10;;;;;;;;;18.00;16.50;28.20;32.50;;;;;;109752;1261;45874;-66
2023/03/05 01:05:37;;;;;;;;;20.50;19.50;28.10;32.30;;;;;;109950;1255;56004;-70
2023/03/05 01:08:04;;;;;;;;;29.50;21.50;28.10;32.20;;;;;;109886;1255;54412;-67
2023/03/05 01:10:30;;;;;;;;;18.50;17.50;28.00;32.40;;;;;;109742;1260;50730;-69
2023/03/05 01:12:57;;;;;;;;;22.50;18.50;28.00;32.20;;;;;;109906;1260;49645;-68
2023/03/05 01:15:24;;;;;;;;;21.50;19.50;27.90;32.40;;;;;;109855;1255;45360;-70
2023/03/05 01:17:50;;;;;;;;;25.00;20.00;27.90;32.70;;;;;;109756;1256;55775;-67
2023/03/05 01:20:19;;;;;;;;;19.00;16.00;27.80;32.10;;;;;;109678;1260;53980;-67
2023/03/05 01:22:45;;;;;;;;;25.00;20.50;27.70;32.10;;;;;;109617;1260;50078;-68
2023/03/05 01:25:13;;;;;;;;;22.00;17.50;27.70;32.10;;;;;;109589;1255;49664;-71
2023/03/05 01:27:40;;;;;;;;;17.00;16.33;27.60;32.00;;;;;;109604;1257;45851;-71
2023/03/05 01:30:07;;;;;;;;;16.00;15.00;27.60;32.30;;;;;;109736;1255;55470;-72
2023/03/05 01:32:34;;;;;;;;;22.50;21.50;27.50;32.10;;;;;;109851;1260;54034;-70
2023/03/05 01:35:01;;;;;;;;;20.67;19.67;27.40;32.10;;;;;;109699;1257;49235;-70
2023/03/05 01:37:28;;;;;;;;;20.00;18.33;27.40;32.10;;;;;;109753;1255;49922;-71
2023/03/05 01:39:54;;;;;;;;;19.00;16.00;27.30;32.00;;;;;;109818;1258;46035;-72
2023/03/05 01:42:21;;;;;;;;;19.00;18.00;27.30;32.10;;;;;;109768;1259;55989;-72
2023/03/05 01:45:08;;;;;;;;;18.00;17.00;27.20;32.10;;;;;;109617;1257;54057;-71
2023/03/05 01:47:36;;;;;;;;;20.00;17.00;27.10;32.30;;;;;;109910;1260;49874;-71
2023/03/05 01:50:04;;;;;;;;;24.00;18.67;27.10;32.10;;;;;;109778;1259;49332;-67
2023/03/05 01:52:32;;;;;;;;;22.00;17.00;27.10;32.30;;;;;;109811;1255;46118;-70
2023/03/05 01:55:02;;;;;;;;;21.00;18.00;27.10;32.70;;;;;;109827;1260;56126;-71
2023/03/05 01:57:32;;;;;;;;;17.00;16.00;27.10;32.60;;;;;;109691;1259;54159;-70
2023/03/05 02:00:03;;;;;;;;;21.00;18.00;27.20;32.90;;;;;;109517;1259;49500;-70
2023/03/05 02:02:30;;;;;;;;;22.00;18.50;27.20;32.80;;;;;;109759;1255;50459;-70
2023/03/05 02:05:04;;;;;;;;;18.00;17.00;27.20;32.80;;;;;;109821;1255;45724;-68
2023/03/05 02:07:30;;;;;;;;;17.00;16.00;27.30;32.90;;;;;;109750;1255;56530;-70
2023/03/05 02:09:56;;;;;;;;;16.00;15.00;27.30;32.90;;;;;;109633;1255;53597;-70
2023/03/05 02:12:23;;;;;;;;;21.00;18.00;27.40;32.90;;;;;;109604;1255;50635;-68
2023/03/05 02:14:57;;;;;;;;;20.67;19.67;27.40;32.90;;;;;;109577;1255;50148;-69
2023/03/05 02:17:26;;;;;;;;;20.00;17.00;27.50;33.00;;;;;;109824;1255;45496;-70
2023/03/05 02:19:56;;;;;;;;;24.00;19.00;27.60;33.00;;;;;;109910;1257;56759;-70
2023/03/05 02:22:23;;;;;;;;;23.00;19.00;27.70;33.10;;;;;;109764;1257;55027;-69
2023/03/05 02:24:49;;;;;;;;;22.50;20.00;27.70;33.10;;;;;;109814;1255;50341;-71
2023/03/05 02:27:16;;;;;;;;;20.00;18.00;27.80;33.10;;;;;;109892;1255;49016;-70
2023/03/05 02:29:45;;;;;;;;;21.00;18.00;27.90;33.10;;;;;;109920;1260;46216;-71
2023/03/05 02:32:12;;;;;;;;;16.50;15.50;28.00;33.20;;;;;;109721;1260;56537;-71
2023/03/05 02:34:39;;;;;;;;;23.00;18.00;28.00;33.20;;;;;;109772;1255;54167;-72
2023/03/05 02:37:07;;;;;;;;;20.33;19.00;28.10;33.50;;;;;;109884;1255;49683;-71
2023/03/05 02:39:34;;;;;;;;;16.00;15.00;28.10;33.40;;;;;;109802;1255;49821;-71
2023/03/05 02:42:01;;;;;;;;;23.50;19.00;28.20;33.20;;;;;;109704;1255;45815;-71
2023/03/05 02:44:27;;;;;;;;;19.50;17.00;28.30;33.40;;;;;;109859;1260;55380;-70
2023/03/05 02:46:53;;;;;;;;;18.33;17.33;28.30;33.10;;;;;;109761;1260;54659;-70
2023/03/05 02:49:19;;;;;;;;;16.00;14.67;28.30;33.00;;;;;;109783;1260;49407;-69
2023/03/05 02:51:46;;;;;;;;;21.00;18.00;28.30;33.20;;;;;;109742;1260;50360;-69
2023/03/05 02:54:12;;;;;;;;;21.00;18.00;28.40;33.00;;;;;;109744;1255;47443;-70
2023/03/05 02:56:38;;;;;;;;;19.00;16.00;28.40;33.00;;;;;;109637;1260;55689;-71
2023/03/05 02:59:05;;;;;;;;;19.00;16.00;28.40;32.90;;;;;;109617;1259;54177;-70
2023/03/05 03:01:31;;;;;;;;;20.00;16.50;28.40;32.90;;;;;;109716;1255;49850;-69
2023/03/05 03:03:57;;;;;;;;;19.00;16.00;28.40;32.70;;;;;;109857;1260;50039;-71
2023/03/05 03:06:24;;;;;;;;;18.00;17.00;28.40;32.60;;;;;;109588;1255;45883;-71
2023/03/05 03:08:50;;;;;;;;;22.50;18.00;28.40;32.50;;;;;;109787;1260;56112;-70
2023/03/05 03:11:17;;;;;;;;;16.25;15.25;28.40;32.50;;;;;;109622;1261;53794;-67
2023/03/05 03:13:43;;;;;;;;;19.00;16.00;28.40;32.70;;;;;;109595;1261;49026;-69
2023/03/05 03:16:12;;;;;;;;;17.50;16.50;28.40;32.50;;;;;;109676;1255;49660;-66
2023/03/05 03:18:39;;;;;;;;;19.00;15.00;28.40;32.70;;;;;;109663;1261;45920;-69
2023/03/05 03:21:05;;;;;;;;;17.00;16.00;28.30;32.40;;;;;;109632;1259;55337;-68
2023/03/05 03:23:33;;;;;;;;;20.00;17.00;28.30;32.40;;;;;;109825;1255;54980;-69
2023/03/05 03:25:59;;;;;;;;;17.00;15.50;28.30;32.30;;;;;;109902;1255;49817;-71
2023/03/05 03:28:25;;;;;;;;;20.00;16.00;28.30;32.20;;;;;;109825;1255;50103;-71
2023/03/05 03:30:51;;;;;;;;;18.00;17.00;28.20;32.20;;;;;;109794;1256;46136;-70
2023/03/05 03:33:18;;;;;;;;;17.00;16.00;28.20;32.20;;;;;;109711;1255;55527;-69
2023/03/05 03:35:45;;;;;;;;;19.00;18.00;28.10;32.30;;;;;;109778;1257;54184;-69
2023/03/05 03:38:12;;;;;;;;;20.50;19.50;28.10;32.20;;;;;;109900;1260;49336;-70
2023/03/05 03:40:40;;;;;;;;;19.00;16.00;28.10;32.30;;;;;;109700;1255;50466;-71
2023/03/05 03:43:07;;;;;;;;;18.50;16.50;28.00;32.10;;;;;;109796;1260;45980;-73
2023/03/05 03:45:33;;;;;;;;;20.00;17.00;28.00;31.70;;;;;;109859;1255;55621;-73
2023/03/05 03:48:00;;;;;;;;;20.00;18.50;28.00;32.00;;;;;;109836;1257;54717;-74
2023/03/05 03:50:26;;;;;;;;;17.00;16.00;27.90;31.90;;;;;;109905;1260;50249;-74
2023/03/05 03:52:52;;;;;;;;;18.50;17.50;27.80;31.90;;;;;;109719;1257;49359;-74
2023/03/05 03:55:18;;;;;;;;;19.00;17.00;27.80;31.90;;;;;;109796;1259;47314;-74
2023/03/05 03:57:44;;;;;;;;;19.00;17.00;27.70;31.80;;;;;;109596;1257;56002;-75
2023/03/05 04:00:12;;;;;;;;;21.00;18.00;27.70;31.90;;;;;;109674;1257;54437;-66
2023/03/05 04:02:38;;;;;;;;;17.00;16.00;27.60;31.80;;;;;;109553;1257;49948;-67
2023/03/05 04:05:05;;;;;;;;;18.00;17.00;27.50;31.80;;;;;;109611;1259;49029;-66
2023/03/05 04:07:31;;;;;;;;;21.00;18.00;27.50;31.80;;;;;;109581;1259;45389;-66
2023/03/05 04:09:57;;;;;;;;;16.67;15.33;27.40;32.00;;;;;;109708;1259;56184;-68
2023/03/05 04:12:24;;;;;;;;;22.00;18.00;27.40;31.80;;;;;;109693;1255;55002;-69
2023/03/05 04:14:50;;;;;;;;;22.00;18.00;27.30;32.40;;;;;;109733;1255;50368;-68
2023/03/05 04:17:16;;;;;;;;;;;27.20;32.00;;;;;;109729;1258;49387;-69
2023/03/05 04:19:43;;;;;;;;;22.00;16.00;27.20;31.90;;;;;;109708;1259;46842;-67
2023/03/05 04:22:11;;;;;;;;;18.00;17.00;27.10;31.90;;;;;;109801;1259;56051;-66
2023/03/05 04:24:38;;;;;;;;;17.00;16.00;27.00;31.90;;;;;;109734;1259;53740;-68
2023/03/05 04:27:05;;;;;;;;;19.00;16.00;27.00;31.90;;;;;;109581;1259;49333;-67
2023/03/05 04:29:32;;;;;;;;;16.00;14.00;26.90;31.90;;;;;;109689;1260;49499;-68
2023/03/05 04:31:58;;;;;;;;;18.00;16.00;26.90;32.00;;;;;;109595;1257;45739;-66
2023/03/05 04:34:25;;;;;;;;;18.00;16.00;26.80;32.00;;;;;;109672;1255;55758;-67
2023/03/05 04:36:51;;;;;;;;;18.50;17.00;26.70;32.00;;;;;;109679;1255;54372;-68
2023/03/05 04:39:19;;;;;;;;;28.00;16.00;26.70;32.30;;;;;;109799;1255;49283;-66
2023/03/05 04:41:47;;;;;;;;;17.33;15.33;26.60;32.00;;;;;;109434;1260;48911;-67
2023/03/05 04:44:13;;;;;;;;;20.00;19.00;26.60;32.10;;;;;;109655;1255;46558;-70
2023/03/05 04:46:40;;;;;;;;;19.00;16.50;26.50;32.10;;;;;;109680;1260;55505;-68
2023/03/05 04:49:06;;;;;;;;;23.00;19.00;26.50;32.20;;;;;;109793;1258;53515;-65
2023/03/05 04:51:33;;;;;;;;;15.00;14.00;26.50;32.30;;;;;;109620;1255;49600;-68
2023/03/05 04:53:59;;;;;;;;;25.00;19.50;26.40;32.20;;;;;;109584;1255;49457;-66
2023/03/05 04:56:25;;;;;;;;;22.00;18.00;26.40;32.50;;;;;;109554;1260;46682;-67
2023/03/05 04:58:51;;;;;;;;;19.00;17.00;26.40;32.30;;;;;;109661;1260;56395;-66
2023/03/05 05:01:18;;;;;;;;;20.00;18.00;26.30;32.30;;;;;;109618;1257;53883;-66
2023/03/05 05:03:44;;;;;;;;;22.00;16.00;26.20;32.30;;;;;;109729;1259;49968;-65
2023/03/05 05:06:10;;;;;;;;;21.00;19.00;26.20;32.40;;;;;;109747;1260;49212;-66
2023/03/05 05:08:37;;;;;;;;;20.00;19.00;26.20;32.30;;;;;;109633;1259;45474;-67
2023/03/05 05:11:05;;;;;;;;;21.50;19.00;26.20;32.50;;;;;;109654;1257;56274;-66
2023/03/05 05:13:32;;;;;;;;;18.50;15.00;26.10;32.60;;;;;;109668;1257;54297;-67
2023/03/05 05:15:59;;;;;;;;;20.00;17.00;26.10;32.40;;;;;;109619;1259;49105;-65
2023/03/05 05:18:25;;;;;;;;;22.00;18.00;26.00;32.60;;;;;;109542;1257;49434;-65
2023/03/05 05:20:51;;;;;;;;;24.00;19.00;25.90;32.10;;;;;;109775;1260;46168;-62
2023/03/05 05:23:18;;;;;;;;;30.00;23.00;25.90;32.70;;;;;;109458;1255;55342;-63
2023/03/05 05:25:44;;;;;;;;;22.00;18.00;25.80;32.50;;;;;;109612;1255;53878;-63
2023/03/05 05:28:11;;;;;;;;;22.00;19.00;25.80;32.50;;;;;;109617;1255;49958;-63
2023/03/05 05:30:38;;;;;;;;;34.00;24.00;25.70;32.50;;;;;;109567;1260;49543;-64
2023/03/05 05:33:04;;;;;;;;;20.00;18.00;25.70;32.50;;;;;;109492;1255;45162;-64
2023/03/05 05:35:30;;;;;;;;;18.00;17.00;25.70;32.70;;;;;;109620;1255;55884;-63
2023/03/05 05:37:57;;;;;;;;;24.75;21.50;25.60;32.40;;;;;;109643;1260;55102;-66
2023/03/05 05:40:23;;;;;;;;;21.00;19.00;25.60;32.50;;;;;;109605;1256;49087;-63
2023/03/05 05:42:49;;;;;;;;;23.00;21.00;25.50;32.50;;;;;;109674;1260;48998;-65
2023/03/05 05:45:16;;;;;;;;;24.00;24.00;25.40;32.60;;;;;;109676;1255;45222;-65
2023/03/05 05:47:42;;;;;;;;;25.00;22.00;25.40;32.70;;;;;;109657;1259;56486;-65
2023/03/05 05:50:10;;;;;;;;;21.00;20.00;25.30;32.80;;;;;;109710;1255;54119;-67
2023/03/05 05:52:36;;;;;;;;;29.33;19.33;25.20;32.80;;;;;;109784;1255;49771;-66
2023/03/05 05:55:03;;;;;;;;;21.50;18.00;25.10;32.80;;;;;;109743;1255;50378;-65
2023/03/05 05:57:29;;;;;;;;;23.00;20.00;25.10;32.90;;;;;;109683;1259;45931;-69
2023/03/05 05:59:56;;;;;;;;;38.00;31.67;25.10;33.10;;;;;;109795;1255;55513;-69
2023/03/05 06:02:22;;;;;;;;;37.67;31.00;25.00;28.80;;;;;;109830;1255;53826;-69
2023/03/05 06:04:48;;;;;;;;;37.67;31.67;24.90;27.00;;;;;;109763;1257;49037;-68
2023/03/05 06:07:14;;;;;;;;;41.00;33.67;24.60;25.80;;;;;;109828;1260;50102;-69
2023/03/05 06:09:41;;;;;;;;;37.33;31.67;24.30;25.30;;;;;;109813;1255;45506;-68
2023/03/05 06:12:07;;;;;;;;;39.50;32.50;24.00;25.20;;;;;;109847;1259;56167;-66
2023/03/05 06:14:34;;;;;;;;;37.00;31.00;23.70;25.10;;;;;;109772;1260;54115;-68
2023/03/05 06:17:00;;;;;;;;;37.00;32.50;23.40;25.10;;;;;;109762;1259;48983;-67
2023/03/05 06:19:26;;;;;;;;;35.33;29.00;23.10;25.10;;;;;;109931;1260;49717;-68
2023/03/05 06:21:52;;;;;;;;;40.50;32.00;22.90;25.20;;;;;;109822;1257;46025;-69
2023/03/05 06:24:19;;;;;;;;;35.33;30.33;22.70;25.20;;;;;;109654;1255;56191;-68
2023/03/05 06:26:48;;;;;;;;;34.00;30.00;22.50;25.40;;;;;;109623;1257;54827;-68
2023/03/05 06:29:15;;;;;;;;;31.00;29.00;22.40;25.30;;;;;;109702;1259;49571;-67
2023/03/05 06:31:41;;;;;;;;;33.00;29.50;22.20;25.20;;;;;;109792;1258;48869;-68
2023/03/05 06:34:09;;;;;;;;;37.00;30.50;22.10;25.20;;;;;;109882;1255;45871;-68
2023/03/05 06:36:37;;;;;;;;;32.50;27.00;22.00;25.30;;;;;;109757;1257;57309;-67
2023/03/05 06:39:04;;;;;;;;;24.33;23.33;21.90;26.20;;;;;;109975;1260;53863;-68
2023/03/05 06:41:31;;;;;;;;;27.00;24.00;21.90;26.80;;;;;;109892;1255;50516;-71
2023/03/05 06:44:01;;;;;;;;;25.50;20.50;22.00;27.20;;;;;;109653;1255;49544;-74
2023/03/05 06:46:30;;;;;;;;;26.00;24.00;22.10;27.50;;;;;;109777;1258;45306;-72
2023/03/05 06:48:59;;;;;;;;;24.50;22.00;22.30;27.60;;;;;;109820;1255;55111;-74
2023/03/05 06:51:32;;;;;;;;;21.50;19.00;22.40;27.90;;;;;;109875;1259;53952;-75
2023/03/05 06:54:01;;;;;;;;;22.00;20.00;22.50;27.90;;;;;;109845;1261;49057;-70
2023/03/05 06:56:28;;;;;;;;;21.00;19.50;22.70;28.00;;;;;;109809;1254;49674;-70
2023/03/05 06:58:54;;;;;;;;;27.33;23.67;22.90;28.30;;;;;;109665;1255;45595;-72
2023/03/05 07:01:22;;;;;;;;;22.50;18.00;23.00;28.30;;;;;;109649;1255;55743;-70
2023/03/05 07:03:53;;;;;;;;;22.33;20.67;23.10;27.90;;;;;;109890;1255;54104;-70
2023/03/05 07:06:20;;;;;;;;;21.50;19.50;23.30;28.30;;;;;;109648;1255;220671;-69
2023/03/05 07:08:47;;;;;;;;;21.00;20.00;23.50;28.90;;;;;;109773;1257;49356;-71
2023/03/05 07:11:19;;;;;;;;;22.50;21.00;23.60;28.70;;;;;;109955;1255;46026;-69
2023/03/05 07:13:47;;;;;;;;;22.00;19.67;23.70;28.70;;;;;;109898;1260;56176;-69
2023/03/05 07:16:16;;;;;;;;;21.50;18.00;23.80;28.80;;;;;;109725;1255;53796;-69
2023/03/05 07:18:43;;;;;;;;;19.50;17.00;24.00;28.90;;;;;;109679;1258;49879;-66
2023/03/05 07:21:14;;;;;;;;;22.33;20.00;24.10;29.00;;;;;;109732;1255;49464;-65
2023/03/05 07:23:40;;;;;;;;;19.00;18.00;24.20;29.00;;;;;;109694;1260;45858;-64
2023/03/05 07:26:07;;;;;;;;;18.00;16.50;24.40;28.70;;;;;;109717;1256;55987;-65
2023/03/05 07:28:34;;;;;;;;;17.00;16.00;24.60;29.10;;;;;;109801;1261;54676;-66
2023/03/05 07:31:09;;;;;;;;;19.50;17.00;24.70;29.10;;;;;;109724;1255;50251;-65
2023/03/05 07:33:36;;;;;;;;;;;24.90;29.30;;;;;;109673;1257;50381;-74
2023/03/05 07:36:06;;;;;;;;;17.67;16.00;25.00;29.40;;;;;;109916;1261;45415;-66
2023/03/05 07:38:32;;;;;;;;;16.00;15.00;25.10;29.40;;;;;;109736;1259;55751;-66
2023/03/05 07:41:07;;;;;;;;;15.50;14.50;25.20;29.40;;;;;;109686;1255;54328;-65
2023/03/05 07:43:33;;;;;;;;;16.00;15.00;25.30;29.40;;;;;;109607;1255;51003;-66
2023/03/05 07:46:10;;;;;;;;;18.50;16.00;25.50;29.40;;;;;;109816;1260;49544;-65
2023/03/05 07:48:37;;;;;;;;;17.00;16.00;25.70;29.40;;;;;;109649;1260;46029;-64
2023/03/05 07:51:06;;;;;;;;;15.67;14.00;25.90;29.60;;;;;;109606;1256;56419;-64
2023/03/05 07:53:32;;;;;;;;;17.00;15.00;26.00;29.40;;;;;;109828;1255;53928;-64
2023/03/05 07:55:58;;;;;;;;;16.00;13.00;26.20;29.60;;;;;;109651;1260;49567;-66
2023/03/05 07:58:25;;;;;;;;;18.00;17.00;26.30;29.40;;;;;;109617;1259;50039;-64
2023/03/05 08:00:51;;;;;;;;;15.00;14.00;26.40;29.40;;;;;;109739;1258;45342;-63
2023/03/05 08:03:17;;;;;;;;;20.00;15.50;26.50;29.50;;;;;;109917;1257;55099;-65
2023/03/05 08:05:44;;;;;;;;;20.00;17.00;26.60;29.60;;;;;;109578;1255;54954;-66
2023/03/05 08:08:11;;;;;;;;;19.00;18.00;26.80;29.90;;;;;;109589;1256;49627;-65
2023/03/05 08:10:37;;;;;;;;;16.00;15.00;26.90;29.90;;;;;;109579;1257;49877;-65
2023/03/05 08:13:04;;;;;;;;;16.00;15.00;27.00;30.00;;;;;;109760;1260;45567;-65
2023/03/05 08:15:30;;;;;;;;;17.00;15.00;27.10;29.90;;;;;;109643;1260;55667;-65
2023/03/05 08:17:57;;;;;;;;;20.00;16.00;27.20;29.80;;;;;;109686;1255;53487;-64
2023/03/05 08:20:23;;;;;;;;;15.00;13.00;27.30;29.70;;;;;;109612;1260;50017;-65
2023/03/05 08:22:50;;;;;;;;;17.50;15.50;27.30;29.70;;;;;;109670;1255;49121;-66
2023/03/05 08:25:16;;;;;;;;;15.50;14.00;27.50;29.70;;;;;;109752;1254;46178;-64
2023/03/05 08:27:44;;;;;;;;;16.00;13.00;27.50;29.60;;;;;;109670;1261;57421;-65
2023/03/05 08:30:17;;;;;;;;;13.67;12.67;27.60;30.00;;;;;;109642;1259;53629;-65
2023/03/05 08:32:43;;;;;;;;;16.00;15.00;27.70;29.80;;;;;;110020;1254;49852;-66
2023/03/05 08:35:09;;;;;;;;;16.50;14.50;27.70;29.60;;;;;;109691;1255;50839;-66
2023/03/05 08:37:36;;;;;;;;;14.00;13.00;27.80;29.60;;;;;;109627;1257;46511;-65
2023/03/05 08:40:03;;;;;;;;;15.00;14.00;27.90;29.50;;;;;;109578;1259;57376;-65
2023/03/05 08:42:30;;;;;;;;;14.25;13.25;27.90;29.50;;;;;;109703;1255;53278;-64
2023/03/05 08:44:56;;;;;;;;;16.00;15.00;28.00;29.50;;;;;;109588;1257;50520;-66
2023/03/05 08:47:24;;;;;;;;;14.00;12.00;28.00;29.40;;;;;;109630;1255;49676;-64
2023/03/05 08:49:54;;;;;;;;;17.00;16.00;28.10;29.40;;;;;;109684;1259;46294;-65
2023/03/05 08:52:21;;;;;;;;;14.00;13.00;28.10;29.40;;;;;;109817;1255;55285;-64
2023/03/05 08:54:47;;;;;;;;;15.00;14.00;28.10;29.40;;;;;;109655;1255;54163;-65
2023/03/05 08:57:14;;;;;;;;;14.50;13.50;28.20;29.30;;;;;;109605;1255;49833;-65
2023/03/05 08:59:40;;;;;;;;;15.00;14.00;28.20;29.30;;;;;;109656;1260;49782;-65
2023/03/05 09:02:06;;;;;;;;;15.00;13.00;28.30;29.30;;;;;;109802;1255;45880;-64
2023/03/05 09:04:32;;;;;;;;;15.00;13.00;28.30;29.30;;;;;;109601;1255;55387;-64
2023/03/05 09:06:58;;;;;;;;;14.00;13.00;28.30;29.30;;;;;;109642;1255;54063;-65
2023/03/05 09:09:25;;;;;;;;;15.00;13.00;28.40;29.30;;;;;;109722;1259;50245;-66
2023/03/05 09:11:52;;;;;;;;;15.00;13.00;28.40;29.30;;;;;;109743;1259;50338;-65
2023/03/05 09:14:18;;;;;;;;;17.00;14.00;28.40;29.30;;;;;;109685;1255;45865;-65
2023/03/05 09:16:44;;;;;;;;;15.67;14.67;28.50;29.30;;;;;;109710;1259;55801;-65
2023/03/05 09:19:11;;;;;;;;;17.00;13.50;28.50;29.20;;;;;;109594;1255;54003;-64
2023/03/05 09:21:38;;;;;;;;;14.00;13.00;28.50;29.20;;;;;;109713;1255;49845;-66
2023/03/05 09:24:04;;;;;;;;;12.00;11.00;28.50;29.20;;;;;;109781;1255;49266;-65
2023/03/05 09:26:30;;;;;;;;;14.50;13.00;28.60;29.40;;;;;;109640;1259;45748;-65
2023/03/05 09:28:57;;;;;;;;;14.00;11.00;28.60;29.10;;;;;;109848;1259;55323;-64
2023/03/05 09:31:23;;;;;;;;;13.00;10.00;28.60;29.10;;;;;;109877;1255;54716;-65
2023/03/05 09:33:49;;;;;;;;;13.00;12.00;28.60;29.10;;;;;;109927;1257;50620;-65
2023/03/05 09:36:28;;;;;;;;;15.00;13.00;28.60;29.10;;;;;;109841;1255;49107;-66
2023/03/05 09:38:54;;;;;;;;;13.00;12.00;28.60;29.10;;;;;;109924;1259;45614;-65
2023/03/05 09:41:53;;;;;;;;;12.00;10.00;28.60;29.10;;;;;;109858;1256;56255;-65
2023/03/05 09:44:38;;;;;;;;;16.00;12.50;28.60;29.20;;;;;;109385;1259;54147;-65
2023/03/05 09:47:28;;;;;;;;;14.00;11.50;28.70;29.40;;;;;;109681;1255;49943;-65
2023/03/05 09:50:02;;;;;;;;;13.00;11.50;28.70;29.30;;;;;;109601;1257;49019;-66
2023/03/05 09:52:45;;;;;;;;;15.50;13.50;28.70;29.40;;;;;;109780;1260;45208;-66
2023/03/05 09:55:14;;;;;;;;;13.00;12.00;28.60;29.30;;;;;;109776;1256;55916;-65
2023/03/05 09:57:43;;;;;;;;;15.50;14.00;28.60;29.30;;;;;;109731;1260;54917;-66
2023/03/05 10:00:22;;;;;;;;;14.00;11.00;28.60;29.30;;;;;;109710;1259;50201;-65
2023/03/05 10:02:54;;;;;;;;;;;28.60;29.30;;;;;;109573;1255;50003;-65
2023/03/05 10:05:53;;;;;;;;;14.00;12.00;28.60;29.30;;;;;;109803;1257;45682;-66
2023/03/05 10:08:23;;;;;;;;;13.00;12.00;28.60;29.30;;;;;;109657;1255;56283;-65
2023/03/05 10:10:53;;;;;;;;;14.00;11.50;28.50;29.30;;;;;;109903;1255;54630;-76
2023/03/05 10:13:29;;;;;;;;;17.00;16.00;28.50;29.30;;;;;;109610;1260;49195;-72
2023/03/05 10:16:34;;;;;;;;;18.00;15.00;28.50;29.40;;;;;;109889;1257;49876;-72
2023/03/05 10:19:09;;;;;;;;;15.00;14.00;28.40;29.40;;;;;;109666;1261;45925;-71
2023/03/05 10:21:44;;;;;;;;;16.00;13.00;28.40;29.10;;;;;;109846;1256;55699;-72
2023/03/05 10:24:35;;;;;;;;;15.00;13.50;28.30;29.40;;;;;;109737;1261;54850;-72
2023/03/05 10:27:08;;;;;;;;;14.00;12.00;28.20;29.30;;;;;;109916;1256;49782;-73
2023/03/05 10:30:22;;;;;;;;;14.50;13.50;28.20;29.30;;;;;;109773;1257;49812;-72
2023/03/05 10:33:07;;;;;;;;;18.00;14.00;28.10;29.20;;;;;;109763;1257;46030;-72
2023/03/05 10:35:39;;;;;;;;;14.00;13.00;28.10;29.40;;;;;;109844;1255;55689;-71
2023/03/05 10:38:33;;;;;;;;;18.00;15.00;28.10;29.30;;;;;;109945;1257;54062;-71
2023/03/05 10:41:12;;;;;;;;;15.00;14.00;28.00;29.30;;;;;;109812;1259;49410;-71
2023/03/05 10:43:47;;;;;;;;;18.00;15.00;28.00;29.30;;;;;;109651;1259;49579;-66
2023/03/05 10:46:19;;;;;;;;;17.00;14.33;28.00;29.40;;;;;;109771;1255;46087;-73
2023/03/05 10:48:58;;;;;;;;;16.50;15.00;28.00;29.80;;;;;;109611;1257;56090;-74
2023/03/05 10:51:37;;;;;;;;;17.00;16.00;28.00;29.90;;;;;;109774;1256;54500;-74
2023/03/05 10:54:28;;;;;;;;;20.67;16.33;28.00;29.80;;;;;;109599;1260;49551;-74
2023/03/05 10:57:16;;;;;;;;;15.00;12.00;28.10;29.80;;;;;;109661;1255;48892;-74
2023/03/05 10:59:47;;;;;;;;;16.00;13.00;28.10;29.90;;;;;;109535;1259;45745;-74
2023/03/05 11:02:13;;;;;;;;;15.00;14.00;28.20;29.70;;;;;;109717;1259;56162;-75
2023/03/05 11:04:40;;;;;;;;;13.50;12.50;28.20;29.70;;;;;;109532;1255;53940;-75
2023/03/05 11:07:30;;;;;;;;;13.50;12.50;28.30;29.90;;;;;;109740;1259;50392;-76
2023/03/05 11:09:59;;;;;;;;;14.67;13.67;28.30;29.70;;;;;;109418;1260;50611;-76
2023/03/05 11:12:27;;;;;;;;;14.00;13.00;28.40;29.70;;;;;;109626;1255;45756;-73
2023/03/05 11:15:05;;;;;;;;;15.00;14.00;28.50;29.70;;;;;;109643;1255;56235;-72
2023/03/05 11:17:42;;;;;;;;;15.50;14.00;28.60;29.70;;;;;;109614;1258;54639;-76
2023/03/05 11:20:26;;;;;;;;;16.50;14.50;28.60;29.70;;;;;;109591;1255;49222;-72
2023/03/05 11:23:03;;;;;;;;;20.50;15.50;28.70;30.00;;;;;;109517;1259;50017;-74
2023/03/05 11:25:31;;;;;;;;;12.50;12.00;28.70;30.10;;;;;;109618;1260;46069;-77
2023/03/05 11:28:00;;;;;;;;;24.00;19.00;28.90;30.40;;;;;;109718;1255;55644;-75
2023/03/05 11:30:32;;;;;;;;;17.00;16.00;28.90;30.40;;;;;;109739;1260;53418;-73
2023/03/05 11:33:21;;;;;;;;;18.00;14.00;29.00;30.50;;;;;;109780;1256;50490;-74
2023/03/05 11:35:48;;;;;;;;;15.00;13.00;29.00;30.70;;;;;;109727;1259;49419;-74
2023/03/05 11:38:24;;;;;;;;;16.00;14.00;29.10;30.70;;;;;;109676;1255;45406;-73
2023/03/05 11:40:52;;;;;;;;;18.00;15.00;29.20;30.90;;;;;;109826;1259;55507;-74
2023/03/05 11:43:21;;;;;;;;;16.50;14.50;29.30;31.00;;;;;;110147;1259;53952;-75
2023/03/05 11:45:53;;;;;;;;;13.50;12.00;29.30;30.70;;;;;;109571;1258;49404;-75
2023/03/05 11:48:31;;;;;;;;;18.50;14.00;29.50;30.80;;;;;;109651;1255;50427;-74
2023/03/05 11:51:00;;;;;;;;;17.00;14.50;29.50;30.70;;;;;;109796;1259;46028;-74
2023/03/05 11:53:36;;;;;;;;;15.00;14.00;29.60;30.80;;;;;;109665;1260;56669;-73
2023/03/05 11:56:19;;;;;;;;;13.50;12.50;29.60;30.70;;;;;;109570;1257;53781;-73
2023/03/05 11:59:19;;;;;;;;;16.00;13.00;29.60;30.60;;;;;;109616;1260;49789;-72
2023/03/05 12:01:49;;;;;;;;;13.00;12.00;29.60;30.50;;;;;;109591;1259;49988;-74
2023/03/05 12:04:17;;;;;;;;;16.00;13.00;29.70;30.50;;;;;;109663;1255;45223;-74
2023/03/05 12:06:46;;;;;;;;;16.00;15.00;29.80;30.70;;;;;;109619;1259;56343;-74
2023/03/05 12:09:19;;;;;;;;;18.00;15.00;29.70;30.40;;;;;;109569;1260;54026;-74
2023/03/05 12:11:47;;;;;;;;;16.00;13.00;29.80;30.40;;;;;;109622;1255;50350;-71
2023/03/05 12:14:40;;;;;;;;;14.50;13.50;29.80;30.40;;;;;;109763;1259;49758;-74
2023/03/05 12:17:11;;;;;;;;;17.00;12.00;29.80;30.40;;;;;;109569;1258;46044;-72
2023/03/05 12:19:47;;;;;;;;;16.00;14.00;29.80;30.30;;;;;;109624;1260;55575;-72
2023/03/05 12:22:20;;;;;;;;;16.00;14.00;29.80;30.30;;;;;;109639;1255;54202;-71
2023/03/05 12:24:47;;;;;;;;;20.00;16.00;29.80;30.50;;;;;;109692;1259;49381;-74
2023/03/05 12:27:16;;;;;;;;;14.00;13.00;29.80;30.20;;;;;;109544;1260;49985;-74
2023/03/05 12:29:48;;;;;;;;;16.75;15.75;29.70;30.10;;;;;;109533;1261;46728;-72